Time;durP1;ratioP1;P1;durP2;ratioP2;P2;SDS_P1;SDS_P2;PMS_P1;PMS_P2;Temp;Humidity;BMP_temperature;BMP_pressure;BME280_temperature;BME280_humidity;BME280_pressure;Samples;Min_cycle;Max_cycle;Signal;HPM_P1;HPM_P2
2021/04/05 00:00:08;;;;;;;14.60;10.75;;;;;;;3.70;55.68;99805.75;115430;1200;103053;-82
2021/04/05 00:02:35;;;;;;;17.55;11.30;;;;;;;3.70;55.49;99797.00;115357;1199;103491;-81
2021/04/05 00:05:06;;;;;;;11.40;9.88;;;;;;;3.70;55.50;99789.95;115520;1199;103182;-83
2021/04/05 00:07:32;;;;;;;12.43;9.45;;;;;;;3.66;55.22;99778.56;115432;1200;103088;-82
2021/04/05 00:09:59;;;;;;;17.17;12.60;;;;;;;3.64;55.25;99767.19;115169;1199;103139;-83
2021/04/05 00:12:26;;;;;;;16.95;13.20;;;;;;;3.66;54.75;99765.40;115357;1199;103111;-83
2021/04/05 00:15:09;;;;;;;12.78;7.90;;;;;;;3.67;55.47;99768.92;115326;1199;103289;-84
2021/04/05 00:17:38;;;;;;;12.40;10.27;;;;;;;3.65;55.59;99760.15;115398;1199;103056;-83
2021/04/05 00:20:14;;;;;;;13.90;11.60;;;;;;;3.61;55.67;99751.42;115637;1199;103166;-84
2021/04/05 00:22:43;;;;;;;13.65;12.25;;;;;;;3.59;56.24;99749.69;115626;1200;103576;-83
2021/04/05 00:25:12;;;;;;;18.13;12.47;;;;;;;3.60;55.67;99751.41;115505;1199;103056;-84
2021/04/05 00:27:40;;;;;;;13.73;11.88;;;;;;;3.63;55.92;99747.00;115712;1199;103047;-83
2021/04/05 00:30:41;;;;;;;14.83;11.53;;;;;;;3.64;55.13;99737.36;115706;1199;102998;-84
2021/04/05 00:33:10;;;;;;;10.83;9.20;;;;;;;3.62;55.72;99734.72;115322;1200;103162;-85
2021/04/05 00:35:39;;;;;;;14.25;11.00;;;;;;;3.59;55.52;99726.00;115706;1199;102682;-81
2021/04/05 00:38:11;;;;;;;14.03;11.70;;;;;;;3.60;56.02;99725.97;115650;1199;103031;-83
2021/04/05 00:40:53;;;;;;;13.33;12.00;;;;;;;3.60;55.48;99723.34;115670;1199;102998;-82
2021/04/05 00:43:20;;;;;;;12.18;10.50;;;;;;;3.64;55.62;99721.56;115343;1199;103456;-83
2021/04/05 00:45:48;;;;;;;13.90;12.08;;;;;;;3.66;55.07;99712.73;115592;1198;103116;-83
2021/04/05 00:48:18;;;;;;;15.33;9.98;;;;;;;3.64;55.76;99713.66;115581;1199;102745;-82
2021/04/05 00:50:55;;;;;;;14.63;12.07;;;;;;;3.64;55.84;99696.09;115531;1199;103095;-83
2021/04/05 00:53:25;;;;;;;18.13;12.23;;;;;;;3.63;55.66;99701.38;115571;1199;103251;-82
2021/04/05 00:55:51;;;;;;;15.53;11.00;;;;;;;3.64;55.27;99689.97;115585;1199;103004;-83
2021/04/05 00:58:18;;;;;;;14.53;12.50;;;;;;;3.59;55.81;99683.87;115604;1198;103011;-83
2021/04/05 01:00:51;;;;;;;10.50;9.07;;;;;;;3.55;55.71;99682.16;115619;1199;103110;-81
2021/04/05 01:03:21;;;;;;;13.00;9.93;;;;;;;3.50;56.10;99683.04;115641;1200;103056;-83
2021/04/05 01:05:50;;;;;;;12.93;11.60;;;;;;;3.54;55.08;99669.88;115531;1199;101704;-82
2021/04/05 01:08:31;;;;;;;13.80;11.70;;;;;;;3.56;56.36;99665.45;115015;1203;103193;-81
2021/04/05 01:10:59;;;;;;;10.90;9.00;;;;;;;3.56;55.51;99661.07;115083;1203;103079;-83
2021/04/05 01:13:26;;;;;;;12.70;10.30;;;;;;;3.56;55.40;99662.81;114991;1200;103229;-82
2021/04/05 01:15:53;;;;;;;9.20;8.30;;;;;;;3.47;56.32;99655.89;115399;1199;103056;-83
2021/04/05 01:18:22;;;;;;;14.83;12.25;;;;;;;3.47;55.94;99646.22;116130;1199;103414;-82
2021/04/05 01:20:49;;;;;;;11.50;9.68;;;;;;;3.47;55.45;99634.83;115561;1200;103175;-82
2021/04/05 01:23:17;;;;;;;14.67;12.10;;;;;;;3.45;55.93;99641.86;115276;1199;103063;-81
2021/04/05 01:25:45;;;;;;;14.23;12.70;;;;;;;3.47;55.22;99635.69;115530;1200;103162;-82
2021/04/05 01:28:12;;;;;;;16.68;11.98;;;;;;;3.55;54.90;99634.77;115559;1200;103484;-81
2021/04/05 01:30:46;;;;;;;13.90;12.48;;;;;;;3.58;54.72;99632.09;115616;1200;103041;-84
2021/04/05 01:33:23;;;;;;;12.17;10.00;;;;;;;3.58;55.96;99625.05;115641;1199;103166;-82
2021/04/05 01:35:55;;;;;;;16.17;12.37;;;;;;;3.54;55.17;99615.45;115567;1199;103156;-82
2021/04/05 01:38:28;;;;;;;14.28;10.65;;;;;;;3.52;55.87;99611.97;115582;1200;103204;-83
2021/04/05 01:41:11;;;;;;;10.20;8.90;;;;;;;3.47;55.53;99603.25;115677;1200;103211;-83
2021/04/05 01:43:53;;;;;;;16.00;9.73;;;;;;;3.39;55.72;99599.83;115541;1200;103027;-83
2021/04/05 01:46:21;;;;;;;11.13;8.63;;;;;;;3.33;56.37;99606.00;115411;1201;103427;-83
2021/04/05 01:48:48;;;;;;;13.23;10.23;;;;;;;3.30;56.58;99600.77;115329;1201;103338;-82
2021/04/05 01:51:18;;;;;;;17.63;14.28;;;;;;;3.31;55.68;99592.00;115518;1200;103248;-82
2021/04/05 01:54:00;;;;;;;13.03;10.85;;;;;;;3.32;55.73;99591.12;115308;1203;103200;-82
2021/04/05 01:56:26;;;;;;;15.95;12.65;;;;;;;3.30;55.74;99592.88;115432;1202;103088;-82
2021/04/05 01:58:54;;;;;;;14.40;11.10;;;;;;;3.27;56.05;99588.52;115295;1203;104604;-80
2021/04/05 02:01:27;;;;;;;11.90;10.57;;;;;;;3.29;56.70;99577.97;115354;1202;102086;-82
2021/04/05 02:03:55;;;;;;;13.45;12.10;;;;;;;3.27;56.59;99577.13;115431;1202;103060;-83
2021/04/05 02:06:29;;;;;;;15.60;13.95;;;;;;;3.22;56.58;99573.66;115419;1203;103123;-83
2021/04/05 02:08:56;;;;;;;18.70;12.67;;;;;;;3.21;56.72;99569.28;115222;1203;103088;-83
2021/04/05 02:11:37;;;;;;;15.30;13.70;;;;;;;3.20;56.14;99570.16;115381;1203;103922;-82
2021/04/05 02:14:07;;;;;;;16.83;12.40;;;;;;;3.18;56.17;99560.52;115276;1203;103079;-83
2021/04/05 02:16:34;;;;;;;10.80;9.70;;;;;;;3.15;56.60;99560.56;115300;1203;103057;-82
2021/04/05 02:19:01;;;;;;;9.83;8.87;;;;;;;3.07;57.18;99562.40;115379;1203;103188;-82
2021/04/05 02:21:30;;;;;;;11.98;9.45;;;;;;;3.03;57.32;99557.19;115353;1203;103235;-82
2021/04/05 02:24:13;;;;;;;17.05;13.40;;;;;;;2.94;57.94;99561.63;115401;1203;103226;-81
2021/04/05 02:26:45;;;;;;;18.30;13.75;;;;;;;2.96;57.00;99546.72;115452;1202;103302;-83
2021/04/05 02:29:18;;;;;;;14.78;13.28;;;;;;;2.96;57.59;99537.94;115538;1202;103220;-82
2021/04/05 02:31:46;;;;;;;13.08;11.78;;;;;;;2.92;58.04;99538.84;115662;1199;103018;-83
2021/04/05 02:34:13;;;;;;;14.38;10.93;;;;;;;2.90;57.36;99538.02;115692;1199;103661;-84
2021/04/05 02:36:41;;;;;;;15.20;13.23;;;;;;;2.83;58.47;99539.83;115608;1198;102360;-83
2021/04/05 02:39:11;;;;;;;14.68;12.20;;;;;;;2.83;57.88;99538.05;115623;1199;103094;-82
2021/04/05 02:41:42;;;;;;;13.27;11.43;;;;;;;2.81;57.90;99524.06;115827;1199;103197;-83
2021/04/05 02:44:25;;;;;;;17.60;13.33;;;;;;;2.76;58.31;99517.08;115641;1202;103072;-83
2021/04/05 02:46:53;;;;;;;15.40;12.97;;;;;;;2.78;57.93;99515.32;115261;1199;103085;-83
2021/04/05 02:49:21;;;;;;;17.77;12.23;;;;;;;2.72;58.15;99508.38;115456;1199;103194;-83
2021/04/05 02:51:49;;;;;;;16.57;12.90;;;;;;;2.75;58.40;99502.22;115707;1198;103191;-82
2021/04/05 02:54:22;;;;;;;17.85;13.83;;;;;;;2.74;57.86;99489.95;115016;1200;103127;-82
2021/04/05 02:57:04;;;;;;;12.45;10.55;;;;;;;2.67;58.42;99483.88;115180;1199;103137;-83
2021/04/05 02:59:31;;;;;;;15.10;12.23;;;;;;;2.60;58.81;99482.16;115217;1199;103133;-83
2021/04/05 03:01:59;;;;;;;16.88;12.43;;;;;;;2.55;59.00;99478.73;115427;1199;103204;-82
2021/04/05 03:04:41;;;;;;;13.43;11.88;;;;;;;2.57;59.03;99471.69;115520;1199;103504;-82
2021/04/05 03:07:08;;;;;;;14.30;10.85;;;;;;;2.55;58.91;99473.48;115630;1200;103059;-82
2021/04/05 03:09:35;;;;;;;16.85;14.10;;;;;;;2.53;59.71;99476.09;115601;1199;103278;-83
2021/04/05 03:12:04;;;;;;;14.13;12.27;;;;;;;2.50;59.42;99466.47;115613;1199;103127;-83
2021/04/05 03:14:57;;;;;;;15.13;11.40;;;;;;;2.47;59.51;99465.65;115654;1200;103146;-82
2021/04/05 03:17:25;;;;;;;19.20;14.23;;;;;;;2.44;59.53;99447.26;115565;1199;103379;-83
2021/04/05 03:19:52;;;;;;;15.17;11.53;;;;;;;2.41;59.71;99445.53;115654;1199;103541;-83
2021/04/05 03:22:20;;;;;;;14.43;10.93;;;;;;;2.40;59.71;99433.30;115720;1198;103153;-83
2021/04/05 03:24:47;;;;;;;17.30;15.13;;;;;;;2.39;60.34;99425.44;115512;1199;103172;-83
2021/04/05 03:27:28;;;;;;;13.58;11.75;;;;;;;2.40;60.02;99409.65;115568;1202;102998;-83
2021/04/05 03:29:58;;;;;;;20.53;14.83;;;;;;;2.40;60.40;99409.65;115724;1198;103053;-83
2021/04/05 03:32:28;;;;;;;15.03;11.93;;;;;;;2.37;60.36;99409.66;115640;1198;103261;-82
2021/04/05 03:34:58;;;;;;;16.37;13.03;;;;;;;2.40;60.52;99414.91;115641;1199;103089;-82
2021/04/05 03:37:26;;;;;;;22.53;16.00;;;;;;;2.41;59.99;99405.25;115585;1198;103104;-83
2021/04/05 03:39:53;;;;;;;16.23;11.30;;;;;;;2.38;59.89;99392.16;115643;1197;103044;-83
2021/04/05 03:42:32;;;;;;;17.53;15.13;;;;;;;2.35;60.36;99387.80;115823;1199;103031;-84
2021/04/05 03:45:24;;;;;;;13.43;11.93;;;;;;;2.31;59.95;99373.80;115862;1200;103853;-83
2021/04/05 03:48:16;;;;;;;18.93;13.23;;;;;;;2.34;61.16;99367.66;115784;1199;103107;-84
2021/04/05 03:50:50;;;;;;;18.35;13.15;;;;;;;2.29;60.54;99362.45;115665;1199;103044;-83
2021/04/05 03:53:44;;;;;;;21.20;12.00;;;;;;;2.30;60.74;99356.30;115831;1198;103095;-83
2021/04/05 03:56:17;;;;;;;21.68;15.63;;;;;;;2.27;60.83;99350.22;115908;1199;103057;-83
2021/04/05 03:58:47;;;;;;;25.70;17.77;;;;;;;2.33;60.91;99337.89;115276;1199;103130;-83
2021/04/05 04:01:18;;;;;;;19.18;14.03;;;;;;;2.38;60.53;99342.23;115377;1199;103105;-84
2021/04/05 04:03:55;;;;;;;18.63;13.70;;;;;;;2.36;61.17;99326.48;115845;1199;104668;-83
2021/04/05 04:06:30;;;;;;;20.43;16.18;;;;;;;2.33;60.42;99314.25;115471;1199;103054;-83
2021/04/05 04:08:57;;;;;;;19.65;14.65;;;;;;;2.33;61.20;99314.25;115175;1200;103059;-83
2021/04/05 04:11:27;;;;;;;25.05;17.60;;;;;;;2.38;60.21;99313.33;115684;1199;103047;-82
2021/04/05 04:13:56;;;;;;;21.70;17.33;;;;;;;2.41;61.40;99310.66;115619;1199;103067;-82
2021/04/05 04:16:24;;;;;;;25.20;17.33;;;;;;;2.45;60.95;99310.63;115598;1199;103028;-82
2021/04/05 04:19:06;;;;;;;21.90;13.90;;;;;;;2.48;60.37;99305.33;115603;1202;103053;-83
2021/04/05 04:21:36;;;;;;;13.83;12.40;;;;;;;2.43;61.11;99304.50;115430;1201;103332;-82
2021/04/05 04:24:03;;;;;;;18.95;15.50;;;;;;;2.44;61.29;99310.61;115505;1199;103031;-82
2021/04/05 04:26:34;;;;;;;19.87;17.20;;;;;;;2.43;60.61;99299.25;115660;1199;103179;-83
2021/04/05 04:29:03;;;;;;;21.60;16.08;;;;;;;2.40;60.78;99287.89;115629;1199;102998;-82
2021/04/05 04:31:29;;;;;;;25.13;19.03;;;;;;;2.43;60.89;99288.73;115627;1200;103017;-84
2021/04/05 04:33:56;;;;;;;18.37;14.17;;;;;;;2.40;60.91;99275.64;115761;1198;102989;-83
2021/04/05 04:36:24;;;;;;;18.60;15.97;;;;;;;2.43;60.84;99275.59;115627;1200;103063;-82
2021/04/05 04:38:55;;;;;;;19.08;16.63;;;;;;;2.44;60.38;99264.20;115572;1199;103178;-84
2021/04/05 04:41:27;;;;;;;24.33;14.78;;;;;;;2.46;60.59;99253.67;115733;1199;103178;-83
2021/04/05 04:43:59;;;;;;;22.03;16.63;;;;;;;2.49;60.69;99240.48;115658;1199;102974;-83
2021/04/05 04:46:26;;;;;;;21.45;16.03;;;;;;;2.49;60.59;99230.86;115575;1199;103059;-82
2021/04/05 04:48:55;;;;;;;21.85;15.70;;;;;;;2.51;61.17;99229.06;116064;1198;103203;-83
2021/04/05 04:51:23;;;;;;;23.75;17.55;;;;;;;2.55;60.84;99226.42;115657;1198;102939;-83
2021/04/05 04:53:50;;;;;;;21.33;16.83;;;;;;;2.56;60.45;99218.52;115575;1198;103121;-83
2021/04/05 04:56:16;;;;;;;22.85;16.40;;;;;;;2.61;60.78;99218.44;115709;1200;103126;-83
2021/04/05 04:58:43;;;;;;;22.03;16.87;;;;;;;2.60;60.40;99214.95;115686;1199;103236;-82
2021/04/05 05:01:11;;;;;;;21.80;18.73;;;;;;;2.64;60.49;99218.41;115650;1199;103136;-83
2021/04/05 05:03:51;;;;;;;21.67;15.73;;;;;;;2.71;60.96;99208.69;115721;1199;103118;-83
2021/04/05 05:06:20;;;;;;;21.50;16.97;;;;;;;2.71;60.49;99206.92;115659;1199;103043;-81
2021/04/05 05:08:46;;;;;;;21.38;16.90;;;;;;;2.77;59.99;99201.59;115506;1199;103082;-82
2021/04/05 05:11:14;;;;;;;22.45;19.10;;;;;;;2.78;60.23;99198.04;115733;1200;103129;-82
2021/04/05 05:13:41;;;;;;;21.63;18.13;;;;;;;2.84;60.22;99195.34;115545;1199;103156;-83
2021/04/05 05:16:09;;;;;;;17.80;15.33;;;;;;;2.88;59.78;99200.54;115583;1199;103191;-83
2021/04/05 05:18:38;;;;;;;22.08;17.63;;;;;;;2.91;60.04;99190.00;115567;1199;103121;-82
2021/04/05 05:21:16;;;;;;;18.88;16.43;;;;;;;2.99;60.08;99191.61;115661;1200;103076;-82
2021/04/05 05:23:43;;;;;;;21.10;16.00;;;;;;;3.01;60.24;99195.09;115569;1199;103194;-82
2021/04/05 05:26:13;;;;;;;28.20;19.13;;;;;;;3.06;60.25;99200.27;116088;1199;103057;-84
2021/04/05 05:28:41;;;;;;;22.50;15.37;;;;;;;3.15;59.05;99201.91;116086;1199;103079;-83
2021/04/05 05:31:08;;;;;;;22.20;18.07;;;;;;;3.21;59.32;99196.53;115287;1199;103097;-82
2021/04/05 05:33:35;;;;;;;17.67;12.40;;;;;;;3.25;58.67;99190.35;115469;1198;101760;-82
2021/04/05 05:36:02;;;;;;;23.45;18.10;;;;;;;3.36;58.00;99184.91;115649;1199;103110;-83
2021/04/05 05:38:29;;;;;;;21.60;17.07;;;;;;;3.43;57.94;99189.16;115320;1199;103264;-82
2021/04/05 05:41:05;;;;;;;20.40;17.20;;;;;;;3.58;57.25;99181.91;115320;1197;103187;-83
2021/04/05 05:44:33;;;;;;;23.13;16.80;;;;;;;3.74;55.91;99172.83;115145;1200;103107;-83
2021/04/05 05:47:07;;;;;;;17.80;15.90;;;;;;;3.94;55.20;99172.45;115432;1199;103046;-83
2021/04/05 05:50:06;;;;;;;18.88;16.38;;;;;;;4.16;54.76;99164.15;115541;1199;103158;-84
2021/04/05 05:52:44;;;;;;;28.10;17.87;;;;;;;4.38;54.04;99150.52;115720;1197;103004;-83
2021/04/05 05:55:35;;;;;;;15.53;13.83;;;;;;;4.45;54.01;99146.84;115589;1199;103172;-83
2021/04/05 05:58:08;;;;;;;19.23;16.13;;;;;;;4.52;53.39;99144.04;115466;1199;103104;-80
2021/04/05 06:00:44;;;;;;;25.13;17.38;;;;;;;4.71;53.61;99145.41;115601;1199;103181;-83
2021/04/05 06:03:38;;;;;;;14.78;11.58;;;;;;;4.76;52.94;99125.05;115668;1199;103099;-85
2021/04/05 06:06:24;;;;;;;23.08;15.78;;;;;;;4.81;52.13;99115.27;115595;1199;103011;-83
2021/04/05 06:09:07;;;;;;;20.60;14.73;;;;;;;4.97;53.11;99124.56;115549;1199;103213;-82
2021/04/05 06:11:59;;;;;;;20.70;16.48;;;;;;;5.05;52.09;99112.95;115503;1200;103070;-83
2021/04/05 06:14:39;;;;;;;21.28;16.73;;;;;;;5.08;52.18;99120.77;115628;1198;103682;-82
2021/04/05 06:17:46;;;;;;;17.73;14.47;;;;;;;5.10;52.58;99108.42;115472;1199;103262;-82
2021/04/05 06:20:19;;;;;;;15.38;13.03;;;;;;;5.18;52.15;99107.34;115515;1199;103017;-82
2021/04/05 06:23:23;;;;;;;22.35;16.25;;;;;;;5.26;52.51;99093.92;115506;1199;103012;-82
2021/04/05 06:26:12;;;;;;;18.47;15.07;;;;;;;5.39;52.62;99094.48;115617;1199;103175;-84
2021/04/05 06:29:03;;;;;;;25.70;17.45;;;;;;;5.49;52.45;99090.70;115433;1199;103485;-83
2021/04/05 06:31:58;;;;;;;16.48;10.80;;;;;;;5.54;51.47;99085.28;115502;1199;103121;-82
2021/04/05 06:34:35;;;;;;;18.03;15.17;;;;;;;5.55;51.50;99079.09;115648;1199;102992;-83
2021/04/05 06:37:40;;;;;;;17.85;14.18;;;;;;;5.56;51.62;99075.55;115583;1199;103091;-81
2021/04/05 06:40:25;;;;;;;21.10;15.63;;;;;;;5.66;52.03;99071.76;115541;1199;103053;-82
2021/04/05 06:43:13;;;;;;;17.37;14.70;;;;;;;5.79;51.35;99050.27;115829;1198;102985;-83
2021/04/05 06:45:55;;;;;;;19.07;15.97;;;;;;;5.91;51.17;99062.27;116403;1198;103507;-82
2021/04/05 06:48:59;;;;;;;21.88;16.10;;;;;;;6.03;51.34;99054.86;115353;1199;103035;-80
2021/04/05 06:52:05;;;;;;;17.00;14.80;;;;;;;6.16;50.84;99044.80;115935;1199;103150;-80
2021/04/05 06:54:55;;;;;;;14.10;11.93;;;;;;;6.29;50.50;99033.84;115669;1199;103113;-81
2021/04/05 06:57:51;;;;;;;23.57;15.47;;;;;;;6.44;49.79;99014.86;115346;1199;101321;-82
2021/04/05 07:01:06;;;;;;;20.07;15.30;;;;;;;6.58;49.80;99024.13;115414;1198;103108;-82
2021/04/05 07:04:00;;;;;;;19.85;14.70;;;;;;;6.74;49.62;99013.92;115287;1203;103164;-84
2021/04/05 07:06:35;;;;;;;17.23;12.13;;;;;;;6.83;49.39;99014.47;115501;1200;103025;-79
2021/04/05 07:09:12;;;;;;;13.87;9.30;;;;;;;6.99;48.85;99011.31;115429;1199;103145;-80
2021/04/05 07:11:49;;;;;;;16.40;13.90;;;;;;;7.09;48.92;99001.27;115527;1199;103153;-83
2021/04/05 07:14:28;;;;;;;17.55;13.15;;;;;;;7.20;48.91;98997.33;115492;1200;103008;-81
2021/04/05 07:17:22;;;;;;;16.37;11.33;;;;;;;7.32;48.28;98996.03;115465;1198;103872;-83
2021/04/05 07:20:30;;;;;;;14.93;10.33;;;;;;;7.48;47.81;98992.84;115531;1199;102022;-82
2021/04/05 07:23:12;;;;;;;21.68;14.63;;;;;;;7.58;48.82;98977.46;115664;1199;103111;-82
2021/04/05 07:25:57;;;;;;;15.47;10.77;;;;;;;7.68;47.34;98982.36;115514;1199;103152;-82
2021/04/05 07:28:48;;;;;;;21.33;12.85;;;;;;;7.76;47.51;98973.27;115503;1198;103094;-82
2021/04/05 07:31:49;;;;;;;16.73;10.10;;;;;;;7.81;46.63;98972.17;115592;1200;103162;-81
2021/04/05 07:34:40;;;;;;;16.93;11.70;;;;;;;7.83;45.87;98954.41;115392;1202;103020;-82
2021/04/05 07:37:24;;;;;;;14.95;10.65;;;;;;;8.00;45.90;98953.76;115465;1200;102989;-80
2021/04/05 07:40:23;;;;;;;12.78;9.83;;;;;;;8.12;45.25;98944.45;115403;1199;103063;-82
2021/04/05 07:43:10;;;;;;;13.80;10.70;;;;;;;8.23;45.11;98940.52;115229;1199;103062;-82
2021/04/05 07:46:11;;;;;;;14.18;10.65;;;;;;;8.28;43.50;98939.41;115408;1200;103073;-81
2021/04/05 07:49:07;;;;;;;10.85;9.75;;;;;;;8.34;42.85;98925.91;115603;1199;103222;-81
2021/04/05 07:51:49;;;;;;;13.63;12.18;;;;;;;8.45;43.32;98919.27;115616;1198;103123;-83
2021/04/05 07:54:17;;;;;;;14.30;11.00;;;;;;;8.65;42.77;98905.19;115451;1199;103625;-83
2021/04/05 07:57:11;;;;;;;14.08;9.98;;;;;;;8.80;41.58;98904.55;115753;1199;103060;-84
2021/04/05 08:00:03;;;;;;;10.47;9.37;;;;;;;9.03;41.96;98897.37;115634;1199;103043;-84
2021/04/05 08:02:43;;;;;;;10.28;8.08;;;;;;;9.16;40.56;98889.73;115547;1199;103040;-83
2021/04/05 08:05:32;;;;;;;9.70;8.80;;;;;;;9.32;40.32;98871.30;115640;1199;103324;-84
2021/04/05 08:08:20;;;;;;;10.83;7.27;;;;;;;9.42;39.07;98875.23;115649;1199;103102;-85
2021/04/05 08:11:05;;;;;;;11.25;9.53;;;;;;;9.52;39.00;98873.03;115611;1199;103069;-83
2021/04/05 08:13:57;;;;;;;14.68;9.65;;;;;;;9.67;39.65;98880.27;115690;1200;101050;-83
2021/04/05 08:16:45;;;;;;;8.87;7.73;;;;;;;9.85;38.27;98878.55;115284;1199;103031;-83
2021/04/05 08:19:16;;;;;;;10.87;8.47;;;;;;;9.84;38.49;98862.67;115779;1199;103073;-84
2021/04/05 08:21:55;;;;;;;9.90;7.30;;;;;;;10.05;37.90;98868.75;115786;1198;102018;-82
2021/04/05 08:24:37;;;;;;;8.63;7.65;;;;;;;10.03;37.60;98865.29;115192;1199;103107;-82
2021/04/05 08:27:09;;;;;;;7.68;6.78;;;;;;;10.06;38.06;98857.15;115440;1199;103162;-82
2021/04/05 08:30:08;;;;;;;15.70;9.03;;;;;;;10.27;37.97;98862.36;115374;1199;102980;-83
2021/04/05 08:33:13;;;;;;;9.53;8.33;;;;;;;10.64;37.56;98847.22;115178;1200;103052;-84
2021/04/05 08:35:43;;;;;;;7.48;6.60;;;;;;;10.93;37.57;98829.72;115695;1199;101869;-83
2021/04/05 08:38:37;;;;;;;8.80;6.70;;;;;;;11.00;36.68;98836.42;115464;1199;103040;-83
2021/04/05 08:41:30;;;;;;;12.38;7.83;;;;;;;11.10;36.24;98833.27;115455;1198;103044;-80
2021/04/05 08:44:26;;;;;;;10.43;7.78;;;;;;;11.17;37.42;98803.55;115358;1199;103375;-82
2021/04/05 08:46:57;;;;;;;8.60;7.17;;;;;;;11.34;35.47;98807.09;115583;1199;103177;-85
2021/04/05 08:49:25;;;;;;;10.77;8.80;;;;;;;11.32;36.07;98804.52;115569;1199;103002;-83
2021/04/05 08:51:54;;;;;;;11.93;9.48;;;;;;;11.31;35.71;98788.61;115718;1199;103200;-82
2021/04/05 08:54:25;;;;;;;12.13;7.25;;;;;;;11.36;36.27;98783.89;115961;1199;102998;-83
2021/04/05 08:57:02;;;;;;;8.88;6.90;;;;;;;11.29;35.98;98769.16;115591;1200;103057;-83
2021/04/05 08:59:56;;;;;;;18.43;9.38;;;;;;;11.43;36.67;98760.41;115472;1199;103190;-82
2021/04/05 09:02:44;;;;;;;10.43;8.40;;;;;;;11.76;36.95;98751.45;115863;1199;102992;-82
2021/04/05 09:05:17;;;;;;;10.68;8.13;;;;;;;11.93;36.20;98750.44;115367;1199;103072;-82
2021/04/05 09:08:00;;;;;;;7.93;6.57;;;;;;;11.81;36.11;98741.34;115686;1199;103057;-82
2021/04/05 09:10:50;;;;;;;11.63;8.27;;;;;;;11.65;35.79;98715.59;115649;1198;103146;-82
2021/04/05 09:13:45;;;;;;;9.58;6.63;;;;;;;11.60;35.79;98725.66;115736;1199;102011;-84
2021/04/05 09:16:26;;;;;;;8.47;7.30;;;;;;;11.63;35.74;98721.95;115653;1200;103149;-81
2021/04/05 09:18:56;;;;;;;9.80;7.28;;;;;;;11.52;35.54;98735.91;115745;1199;103043;-81
2021/04/05 09:22:00;;;;;;;10.17;7.40;;;;;;;11.50;35.97;98736.00;115465;1198;104117;-82
2021/04/05 09:24:49;;;;;;;7.83;7.03;;;;;;;11.39;36.93;98735.73;115589;1198;102065;-82
2021/04/05 09:27:32;;;;;;;8.60;6.93;;;;;;;11.45;37.47;98727.40;115607;1199;103121;-84
2021/04/05 09:30:33;;;;;;;10.23;8.43;;;;;;;11.53;37.01;98730.48;115618;1199;103144;-82
2021/04/05 09:33:30;;;;;;;12.20;8.08;;;;;;;11.43;36.31;98720.43;115957;1199;103018;-84
2021/04/05 09:36:06;;;;;;;9.63;6.88;;;;;;;11.15;36.70;98709.51;115526;1200;103142;-83
2021/04/05 09:38:52;;;;;;;10.50;7.80;;;;;;;11.10;37.52;98710.72;115693;1199;103002;-81
2021/04/05 09:41:43;;;;;;;9.67;7.27;;;;;;;11.08;37.44;98689.50;115760;1199;103191;-84
2021/04/05 09:44:29;;;;;;;6.83;5.65;;;;;;;11.08;36.54;98694.83;115692;1199;103248;-81
2021/04/05 09:47:34;;;;;;;8.23;7.50;;;;;;;11.03;36.83;98697.73;115635;1199;101640;-80
2021/04/05 09:50:05;;;;;;;12.88;7.75;;;;;;;10.97;37.31;98673.23;115764;1200;103047;-84
2021/04/05 09:52:54;;;;;;;7.63;6.80;;;;;;;11.01;37.63;98669.48;115671;1199;103028;-82
2021/04/05 09:55:42;;;;;;;8.73;7.18;;;;;;;11.03;37.46;98659.59;115747;1201;103184;-83
2021/04/05 09:58:22;;;;;;;10.00;6.73;;;;;;;11.18;36.43;98658.73;115190;1202;103056;-82
2021/04/05 10:00:59;;;;;;;8.58;7.68;;;;;;;11.76;36.08;98648.28;115363;1202;103041;-83
2021/04/05 10:03:27;;;;;;;8.00;6.40;;;;;;;12.08;36.12;98647.34;115394;1203;103081;-82
2021/04/05 10:05:56;;;;;;;9.37;6.60;;;;;;;12.32;35.25;98640.48;115285;1202;102092;-82
2021/04/05 10:08:29;;;;;;;12.85;7.50;;;;;;;12.52;35.08;98638.39;115560;1199;103446;-83
2021/04/05 10:10:56;;;;;;;8.55;7.70;;;;;;;12.73;35.05;98636.18;115586;1199;103110;-82
2021/04/05 10:13:25;;;;;;;9.70;8.20;;;;;;;12.88;34.94;98637.85;115646;1200;103213;-83
2021/04/05 10:16:12;;;;;;;9.60;7.10;;;;;;;12.85;34.93;98635.39;115578;1198;103085;-82
2021/04/05 10:18:51;;;;;;;9.97;6.63;;;;;;;12.70;34.56;98628.34;115677;1199;102615;-83
2021/04/05 10:21:19;;;;;;;12.83;7.17;;;;;;;12.93;34.24;98620.66;115698;1199;103059;-82
2021/04/05 10:23:48;;;;;;;13.03;8.07;;;;;;;12.96;33.81;98621.33;115881;1200;103088;-81
2021/04/05 10:26:15;;;;;;;8.65;5.53;;;;;;;12.64;33.99;98626.92;115556;1198;103541;-82
2021/04/05 10:28:44;;;;;;;8.23;6.70;;;;;;;12.44;34.46;98622.00;115593;1199;101486;-81
2021/04/05 10:31:19;;;;;;;5.85;5.10;;;;;;;12.13;34.33;98619.41;115645;1200;102992;-82
2021/04/05 10:33:51;;;;;;;9.87;6.73;;;;;;;11.91;34.48;98609.16;115504;1198;103073;-80
2021/04/05 10:36:22;;;;;;;7.83;5.40;;;;;;;11.77;34.68;98588.66;115758;1199;103018;-82
2021/04/05 10:38:51;;;;;;;8.50;7.03;;;;;;;11.81;35.20;98590.19;116057;1199;103145;-83
2021/04/05 10:41:20;;;;;;;7.30;5.90;;;;;;;11.88;35.50;98586.19;115399;1199;102098;-82
2021/04/05 10:43:54;;;;;;;5.90;5.20;;;;;;;12.00;35.50;98575.77;115717;1200;103069;-82
2021/04/05 10:46:43;;;;;;;8.10;5.43;;;;;;;11.94;34.94;98576.09;115512;1200;103066;-85
2021/04/05 10:49:28;;;;;;;5.63;4.75;;;;;;;11.92;35.16;98575.35;115789;1200;103050;-83
2021/04/05 10:52:12;;;;;;;6.20;5.33;;;;;;;11.94;35.31;98565.42;115871;1200;103044;-85
2021/04/05 10:54:46;;;;;;;8.53;5.95;;;;;;;11.97;35.23;98565.26;115736;1199;103031;-84
2021/04/05 10:57:24;;;;;;;7.50;5.90;;;;;;;11.93;35.04;98566.38;115741;1199;103319;-85
2021/04/05 10:59:51;;;;;;;6.63;5.37;;;;;;;11.81;34.88;98557.31;115557;1199;103164;-83
2021/04/05 11:02:41;;;;;;;9.28;6.78;;;;;;;11.75;34.91;98545.22;115766;1199;101990;-85
2021/04/05 11:05:12;;;;;;;7.85;7.05;;;;;;;11.80;35.00;98545.80;116063;1198;100878;-89
2021/04/05 11:07:41;;;;;;;7.10;5.60;;;;;;;11.88;35.56;98530.17;115797;1199;103204;-84
2021/04/05 11:10:11;;;;;;;8.47;7.50;;;;;;;11.94;35.43;98526.29;115626;1199;103075;-84
2021/04/05 11:12:41;;;;;;;9.30;6.65;;;;;;;11.99;35.54;98526.86;116023;1199;101640;-82
2021/04/05 11:15:15;;;;;;;6.50;5.73;;;;;;;12.06;35.74;98515.82;116378;1199;102178;-86
2021/04/05 11:17:44;;;;;;;7.00;5.50;;;;;;;12.14;36.04;98506.39;115694;1199;102246;-83
2021/04/05 11:20:13;;;;;;;10.37;6.67;;;;;;;12.19;36.01;98493.59;115571;1199;103280;-83
2021/04/05 11:23:04;;;;;;;8.70;5.80;;;;;;;12.29;35.67;98496.55;115457;1199;103049;-84
2021/04/05 11:26:07;;;;;;;9.25;7.55;;;;;;;12.32;36.32;98491.00;115753;1200;103235;-84
2021/04/05 11:28:35;;;;;;;11.83;6.10;;;;;;;12.30;35.88;98492.92;115591;1200;101451;-84
2021/04/05 11:31:09;;;;;;;8.85;6.05;;;;;;;12.27;34.83;98497.59;115608;1198;103014;-83
2021/04/05 11:33:53;;;;;;;9.90;7.03;;;;;;;12.25;35.25;98489.69;115811;1198;103114;-84
2021/04/05 11:36:21;;;;;;;7.95;5.93;;;;;;;12.27;35.87;98490.43;115726;1199;103242;-81
2021/04/05 11:38:52;;;;;;;7.73;6.08;;;;;;;12.27;36.21;98476.24;115794;1199;103229;-82
2021/04/05 11:41:28;;;;;;;11.90;6.73;;;;;;;12.24;35.61;98481.79;115726;1200;102989;-83
2021/04/05 11:43:59;;;;;;;11.30;6.30;;;;;;;12.21;35.87;98490.84;115437;1199;103049;-82
2021/04/05 11:46:35;;;;;;;10.97;6.13;;;;;;;12.18;35.66;98488.35;115249;1199;103171;-83
2021/04/05 11:49:11;;;;;;;7.97;5.57;;;;;;;12.13;35.93;98491.33;115411;1199;103168;-81
2021/04/05 11:52:08;;;;;;;13.13;6.47;;;;;;;12.08;36.06;98488.09;115260;1199;103085;-82
2021/04/05 11:55:08;;;;;;;9.13;6.43;;;;;;;11.98;35.70;98481.61;115251;1199;103047;-82
2021/04/05 11:57:49;;;;;;;8.18;6.58;;;;;;;11.98;35.99;98477.16;115354;1200;103057;-83